Time;durP1;ratioP1;P1;durP2;ratioP2;P2;SDS_P1;SDS_P2;PMS_P1;PMS_P2;Temp;Humidity;BMP_temperature;BMP_pressure;BME280_temperature;BME280_humidity;BME280_pressure;Samples;Min_cycle;Max_cycle;Signal;HPM_P1;HPM_P2
2022/12/11 00:04:10;;;;;;;11.77;5.63;;;;;;;17.59;52.50;95917.16;10483844;28;20040;-31
2022/12/11 00:09:11;;;;;;;12.83;5.87;;;;;;;17.58;52.56;95916.31;10476838;28;20032;-30
2022/12/11 00:14:12;;;;;;;10.80;5.47;;;;;;;17.57;52.67;95913.81;10485369;28;20024;-30
2022/12/11 00:19:12;;;;;;;8.32;5.45;;;;;;;17.57;52.38;95912.09;10483674;28;20369;-32
2022/12/11 00:24:13;;;;;;;12.17;5.80;;;;;;;17.56;52.62;95917.19;10472046;28;20031;-30
2022/12/11 00:29:13;;;;;;;10.60;4.60;;;;;;;17.57;52.81;95903.69;10485248;28;20048;-30
2022/12/11 00:34:14;;;;;;;12.00;5.53;;;;;;;17.61;53.22;95920.50;10480839;28;20033;-30
2022/12/11 00:39:14;;;;;;;11.60;5.17;;;;;;;17.56;52.50;95912.13;10486815;28;20126;-32
2022/12/11 00:44:14;;;;;;;10.40;5.10;;;;;;;17.60;52.82;95926.44;10476160;28;20028;-30
2022/12/11 00:49:15;;;;;;;9.53;4.87;;;;;;;17.60;52.40;95929.81;10486471;28;20029;-30
2022/12/11 00:54:16;;;;;;;9.48;4.75;;;;;;;17.61;52.32;95943.28;10474318;28;20041;-30
2022/12/11 00:59:16;;;;;;;7.05;4.60;;;;;;;17.57;52.46;95937.41;10476047;28;20058;-30
2022/12/11 01:04:16;;;;;;;8.87;4.63;;;;;;;17.58;51.78;95936.56;10481110;28;20028;-31
2022/12/11 01:14:37;;;;;;;9.02;5.38;;;;;;;17.56;52.15;95933.22;10481761;28;20028;-31
2022/12/11 01:19:37;;;;;;;9.20;4.50;;;;;;;17.55;52.56;95948.41;10474900;28;20436;-30
2022/12/11 01:24:37;;;;;;;7.43;5.03;;;;;;;17.55;52.48;95949.25;10479283;28;20385;-30
2022/12/11 01:29:38;;;;;;;7.43;4.17;;;;;;;17.56;52.83;95962.75;10482338;28;20420;-30
2022/12/11 01:34:38;;;;;;;12.70;6.00;;;;;;;17.56;52.40;95967.81;10468842;28;20436;-31
2022/12/11 01:39:39;;;;;;;8.23;4.37;;;;;;;17.59;52.40;95971.13;10482302;28;20067;-31
2022/12/11 01:44:39;;;;;;;9.05;4.82;;;;;;;17.60;52.92;95964.38;10472893;28;20283;-31
2022/12/11 01:49:40;;;;;;;7.47;4.10;;;;;;;17.60;52.32;95984.63;10478866;28;20097;-30
2022/12/11 01:54:42;;;;;;;9.25;4.70;;;;;;;17.61;52.71;95988.84;10483263;28;20059;-30
2022/12/11 01:59:45;;;;;;;8.90;4.38;;;;;;;17.58;52.50;95986.34;10474706;28;20040;-31
2022/12/11 02:04:47;;;;;;;9.27;5.22;;;;;;;17.58;52.69;95986.34;10479563;28;20052;-31
2022/12/11 02:09:48;;;;;;;9.85;5.15;;;;;;;17.58;52.67;95986.34;10475618;28;20093;-32
2022/12/11 02:14:51;;;;;;;9.60;4.95;;;;;;;17.56;52.94;95983.00;10498617;28;20520;-30
2022/12/11 02:20:02;;;;;;;10.95;4.32;;;;;;;17.56;52.64;95995.66;10477530;28;20434;-30
2022/12/11 02:25:18;;;;;;;9.30;4.05;;;;;;;17.57;52.71;95979.63;10483498;28;20032;-30
2022/12/11 02:30:18;;;;;;;8.55;4.55;;;;;;;17.57;52.51;95984.66;10479313;28;20033;-30
2022/12/11 02:35:32;;;;;;;9.52;4.40;;;;;;;17.54;52.20;95979.63;10488426;28;20043;-30
2022/12/11 02:40:35;;;;;;;10.10;4.32;;;;;;;17.59;52.88;95977.91;10479858;28;20078;-31
2022/12/11 02:45:39;;;;;;;9.15;4.57;;;;;;;17.62;52.41;95988.00;10477550;28;20035;-30
2022/12/11 02:50:44;;;;;;;7.68;4.13;;;;;;;17.60;52.84;95990.56;10487968;28;20040;-31
2022/12/11 02:55:49;;;;;;;10.07;4.70;;;;;;;17.59;52.24;95988.03;10479003;28;20048;-30
2022/12/11 03:00:50;;;;;;;12.27;4.00;;;;;;;17.56;52.59;95972.88;10490017;28;20041;-33
2022/12/11 03:05:50;;;;;;;14.68;4.70;;;;;;;17.58;52.72;95976.22;10485277;28;20033;-31
2022/12/11 03:10:50;;;;;;;10.17;4.20;;;;;;;17.58;52.76;95976.22;10489018;28;20674;-30
2022/12/11 03:16:03;;;;;;;9.00;3.73;;;;;;;17.56;52.37;95972.88;10480187;28;20525;-30
2022/12/11 03:21:08;;;;;;;6.00;3.78;;;;;;;17.57;52.37;95982.16;10491636;28;20655;-31
2022/12/11 03:26:12;;;;;;;8.23;3.92;;;;;;;17.54;52.53;95969.50;10479825;28;20032;-30
2022/12/11 03:31:38;;;;;;;5.90;3.92;;;;;;;17.55;52.53;95973.69;10484421;28;20481;-30
2022/12/11 03:36:39;;;;;;;9.07;3.70;;;;;;;17.52;52.64;95986.38;10465534;28;20544;-31
2022/12/11 03:41:43;;;;;;;8.23;4.10;;;;;;;17.54;52.32;95984.69;10476597;28;20481;-31
2022/12/11 03:46:45;;;;;;;10.13;5.18;;;;;;;17.57;52.46;95974.56;10490729;28;20054;-31
2022/12/11 03:51:48;;;;;;;7.47;4.18;;;;;;;17.56;53.01;95975.41;10485594;28;20045;-30
2022/12/11 03:56:54;;;;;;;10.13;3.70;;;;;;;17.56;53.10;95972.88;10481335;28;20044;-30
2022/12/11 04:01:54;;;;;;;9.30;4.18;;;;;;;17.57;53.01;95974.56;10483153;28;20039;-30
2022/12/11 04:06:55;;;;;;;5.40;3.50;;;;;;;17.58;53.05;95981.28;10479565;28;20036;-30
2022/12/11 04:11:55;;;;;;;9.27;3.77;;;;;;;17.56;52.94;95988.06;10491849;28;20051;-31
2022/12/11 04:16:58;;;;;;;4.90;3.10;;;;;;;17.55;53.14;95986.34;10497619;28;20043;-30
2022/12/11 04:27:47;;;;;;;4.95;2.97;;;;;;;17.48;52.61;95979.69;10477869;28;20051;-29
2022/12/11 04:32:38;;;;;;;7.32;4.00;;;;;;;17.50;53.08;95977.97;10475007;28;20110;-31
2022/12/11 04:37:39;;;;;;;6.20;3.40;;;;;;;17.52;52.80;95986.38;10485853;28;20028;-31
2022/12/11 04:42:40;;;;;;;7.55;3.75;;;;;;;17.51;53.17;95980.47;10476648;28;20286;-30
2022/12/11 04:47:41;;;;;;;8.77;3.70;;;;;;;17.51;53.33;95974.59;10486098;28;20473;-30
2022/12/11 04:52:42;;;;;;;5.80;3.20;;;;;;;17.54;53.32;95969.50;10482663;28;20041;-31
2022/12/11 04:57:42;;;;;;;4.90;2.97;;;;;;;17.58;53.13;95977.03;10480100;28;20119;-31
2022/12/11 05:02:42;;;;;;;7.40;3.60;;;;;;;17.58;52.99;95968.63;10478159;28;20444;-30
2022/12/11 05:07:43;;;;;;;6.47;3.38;;;;;;;17.61;52.47;95968.59;10467747;28;20040;-30
2022/12/11 05:12:43;;;;;;;5.15;2.90;;;;;;;17.59;52.32;95965.25;10485848;28;20385;-31
2022/12/11 05:17:44;;;;;;;9.83;3.37;;;;;;;17.57;53.23;95959.38;10477480;28;20045;-30
2022/12/11 05:22:44;;;;;;;6.70;3.13;;;;;;;17.57;52.85;95962.72;10483504;28;20094;-30
2022/12/11 05:27:44;;;;;;;8.77;2.80;;;;;;;17.52;52.86;95961.94;10470511;28;20036;-31
2022/12/11 05:32:45;;;;;;;4.60;2.88;;;;;;;17.53;52.96;95967.81;10481592;28;20781;-31
2022/12/11 05:37:45;;;;;;;6.07;3.53;;;;;;;17.53;52.93;95955.16;10472153;28;20047;-30
2022/12/11 05:42:46;;;;;;;5.37;2.87;;;;;;;17.54;53.01;95954.31;10479573;28;20040;-30
2022/12/11 05:47:46;;;;;;;5.30;2.80;;;;;;;17.53;52.90;95957.69;10483814;28;20060;-32
2022/12/11 05:52:47;;;;;;;4.07;2.83;;;;;;;17.52;53.04;95953.50;10479158;28;20044;-31
2022/12/11 05:57:47;;;;;;;4.43;2.80;;;;;;;17.50;53.13;95952.69;10483104;28;20040;-30
2022/12/11 06:02:47;;;;;;;5.73;3.00;;;;;;;17.53;52.97;95950.09;10475657;28;20037;-30
2022/12/11 06:07:48;;;;;;;5.63;2.73;;;;;;;17.48;53.23;95945.09;10484874;28;20037;-30
2022/12/11 06:12:48;;;;;;;3.23;2.30;;;;;;;17.48;53.06;95944.25;10475415;28;20040;-31
2022/12/11 06:17:48;;;;;;;6.47;3.10;;;;;;;17.54;52.75;95955.16;10472363;28;20111;-30
2022/12/11 06:22:49;;;;;;;4.07;2.50;;;;;;;17.58;52.69;95955.97;10481319;28;20078;-30
2022/12/11 06:27:49;;;;;;;6.83;3.60;;;;;;;17.57;52.65;95942.47;10479081;28;20054;-30
2022/12/11 06:32:50;;;;;;;7.47;4.13;;;;;;;17.53;52.41;95935.78;10470541;28;20333;-30
2022/12/11 06:37:50;;;;;;;5.33;2.90;;;;;;;17.66;52.52;95939.84;10478450;28;20103;-30
2022/12/11 06:42:50;;;;;;;6.43;3.00;;;;;;;17.75;52.07;95934.69;10478743;28;20290;-30
2022/12/11 06:47:51;;;;;;;7.47;2.77;;;;;;;17.76;51.89;95930.50;10482581;28;20551;-30
2022/12/11 06:52:51;;;;;;;5.27;2.93;;;;;;;17.73;52.78;95943.19;10480288;28;20078;-30
2022/12/11 06:57:51;;;;;;;3.95;2.22;;;;;;;17.68;50.02;95942.38;10479998;28;20044;-31
2022/12/11 07:02:52;;;;;;;4.87;2.63;;;;;;;17.39;50.44;95944.31;10479358;28;20054;-30
2022/12/11 07:07:53;;;;;;;6.18;2.88;;;;;;;17.29;51.14;95937.63;10484263;28;20495;-30
2022/12/11 07:12:54;;;;;;;5.95;2.92;;;;;;;17.20;51.31;95942.75;10480313;28;20078;-31
2022/12/11 07:17:54;;;;;;;7.90;2.47;;;;;;;17.19;51.31;95946.13;10480970;28;20119;-31
2022/12/11 07:22:55;;;;;;;4.67;2.20;;;;;;;17.16;51.36;95957.09;10479496;28;20028;-30
2022/12/11 07:27:55;;;;;;;5.38;2.58;;;;;;;17.20;51.16;95962.97;10483864;28;20065;-32
2022/12/11 07:32:55;;;;;;;7.37;3.03;;;;;;;17.21;51.40;95959.59;10483752;28;20067;-31
2022/12/11 07:37:57;;;;;;;8.20;2.77;;;;;;;17.17;51.08;95965.53;10487278;28;20040;-31
2022/12/11 07:42:57;;;;;;;3.47;2.47;;;;;;;17.17;51.08;95973.94;10472365;28;20807;-30
2022/12/11 07:47:58;;;;;;;5.40;2.33;;;;;;;17.17;51.03;95970.59;10486749;28;20028;-30
2022/12/11 07:52:58;;;;;;;5.45;2.97;;;;;;;17.16;50.69;95969.75;10484469;28;20036;-30
2022/12/11 07:57:59;;;;;;;7.53;2.87;;;;;;;17.13;51.12;95976.50;10489854;28;20036;-30
2022/12/11 08:02:59;;;;;;;6.90;3.53;;;;;;;17.18;51.12;95974.81;10479902;28;20046;-31
2022/12/11 08:07:59;;;;;;;4.67;2.97;;;;;;;17.11;49.69;95980.75;10489934;28;20444;-30
2022/12/11 08:13:00;;;;;;;5.80;2.30;;;;;;;17.03;50.35;95974.91;10482015;28;20052;-31
2022/12/11 08:18:00;;;;;;;9.33;2.97;;;;;;;17.06;50.02;95978.25;10490290;28;20062;-30
2022/12/11 08:23:02;;;;;;;12.90;3.28;;;;;;;17.10;50.20;95977.41;10496079;28;20056;-30
2022/12/11 08:28:02;;;;;;;8.60;3.23;;;;;;;16.98;50.28;95947.13;10477832;28;20085;-31
2022/12/11 08:33:03;;;;;;;12.45;3.95;;;;;;;16.97;47.51;95983.38;10477627;28;20404;-30
2022/12/11 08:38:03;;;;;;;14.33;5.23;;;;;;;17.10;49.46;95976.53;10474144;28;20470;-30
2022/12/11 08:43:03;;;;;;;11.43;5.13;;;;;;;17.07;50.42;95976.56;10479644;28;20380;-31
2022/12/11 08:48:04;;;;;;;15.23;6.30;;;;;;;17.08;50.61;95978.25;10496773;28;20408;-30
2022/12/11 08:53:04;;;;;;;12.40;5.68;;;;;;;17.05;50.16;95984.16;10487171;28;20080;-30
2022/12/11 08:58:05;;;;;;;10.07;5.83;;;;;;;17.10;49.43;95971.50;10470591;28;20029;-31
2022/12/11 09:03:05;;;;;;;14.20;6.07;;;;;;;17.09;49.78;95972.34;10490295;28;20294;-30
2022/12/11 09:08:06;;;;;;;11.07;5.50;;;;;;;17.10;48.15;95972.34;10508672;28;20873;-30
2022/12/11 09:13:06;;;;;;;20.60;6.77;;;;;;;17.22;49.83;95956.22;10486950;28;20037;-30
2022/12/11 09:18:07;;;;;;;12.43;6.07;;;;;;;16.94;45.97;95949.69;10482569;28;20056;-29
2022/12/11 09:23:08;;;;;;;12.00;6.82;;;;;;;16.30;39.31;95953.34;10483714;28;20132;-30
2022/12/11 09:28:08;;;;;;;11.43;6.53;;;;;;;16.41;39.99;95956.72;10488169;28;20037;-30
2022/12/11 09:33:08;;;;;;;8.20;5.67;;;;;;;16.47;44.26;95948.25;10505901;28;20119;-30
2022/12/11 09:38:09;;;;;;;12.20;5.30;;;;;;;16.59;45.15;95940.59;10480612;28;20040;-30
2022/12/11 09:43:29;;;;;;;8.88;5.25;;;;;;;16.61;46.71;95944.81;10468851;28;20448;-30
2022/12/11 09:48:33;;;;;;;8.35;5.22;;;;;;;16.64;46.84;95932.19;10484638;28;20091;-30
2022/12/11 09:53:35;;;;;;;7.50;4.10;;;;;;;16.72;47.05;95935.50;10474795;28;20040;-32
2022/12/11 09:58:49;;;;;;;7.50;3.95;;;;;;;16.73;47.32;95917.78;10475395;28;20041;-30
2022/12/11 10:04:17;;;;;;;6.00;3.78;;;;;;;16.75;47.69;95905.16;10469842;28;20033;-30
2022/12/11 10:09:29;;;;;;;6.45;3.85;;;;;;;16.73;47.27;95894.22;10474204;28;20043;-29
2022/12/11 10:14:42;;;;;;;6.15;3.70;;;;;;;16.80;47.53;95886.56;10474222;28;20041;-27
2022/12/11 10:19:44;;;;;;;5.75;3.58;;;;;;;16.77;47.92;95877.34;10470883;28;20925;-28
2022/12/11 10:24:50;;;;;;;3.65;3.10;;;;;;;16.82;47.65;95884.03;10485155;28;20041;-28
2022/12/11 10:30:17;;;;;;;4.55;3.58;;;;;;;16.79;47.84;95868.88;10468727;28;20041;-29
2022/12/11 10:35:42;;;;;;;6.32;4.22;;;;;;;16.71;43.85;95859.69;10478742;28;20507;-27
2022/12/11 10:41:04;;;;;;;5.65;3.30;;;;;;;16.82;45.65;95844.41;10470260;28;20067;-27
2022/12/11 10:46:13;;;;;;;4.95;3.75;;;;;;;16.95;46.13;95837.59;10479178;28;20156;-30
2022/12/11 10:51:14;;;;;;;8.57;4.18;;;;;;;17.01;46.56;95842.59;10475623;28;20041;-29
2022/12/11 10:56:14;;;;;;;4.78;3.67;;;;;;;17.00;47.10;95833.34;10491210;28;20606;-28
2022/12/11 11:01:20;;;;;;;4.75;3.47;;;;;;;17.02;46.76;95819.84;10488659;28;20044;-28
2022/12/11 11:06:21;;;;;;;6.22;3.22;;;;;;;17.03;46.88;95818.13;10484262;28;20040;-28
2022/12/11 11:11:31;;;;;;;4.88;3.60;;;;;;;17.06;45.85;95816.41;10485303;28;20598;-28
2022/12/11 11:16:36;;;;;;;5.30;3.40;;;;;;;17.08;46.19;95811.34;10474734;28;20036;-28
2022/12/11 11:21:36;;;;;;;3.53;2.75;;;;;;;17.06;46.26;95802.94;10482802;28;20047;-29
2022/12/11 11:26:36;;;;;;;3.50;2.77;;;;;;;17.06;46.51;95808.00;10477372;28;20033;-28
2022/12/11 11:31:37;;;;;;;3.93;2.90;;;;;;;17.01;46.72;95797.09;10486016;28;20283;-27
2022/12/11 11:36:37;;;;;;;4.87;3.37;;;;;;;17.05;46.21;95784.41;10489392;28;20294;-30
2022/12/11 11:42:16;;;;;;;3.63;3.00;;;;;;;17.09;45.93;95792.78;10478149;28;20303;-27
2022/12/11 11:47:22;;;;;;;5.75;3.92;;;;;;;16.93;42.26;95787.06;10476913;28;20287;-29
2022/12/11 11:52:25;;;;;;;5.97;3.72;;;;;;;17.07;43.81;95794.50;10486755;28;20047;-28
2022/12/11 11:57:36;;;;;;;12.18;3.67;;;;;;;17.05;47.22;95786.06;10462936;28;20121;-27
2022/12/11 12:02:36;;;;;;;4.75;3.38;;;;;;;17.05;47.42;95775.97;10482339;28;20032;-27
2022/12/11 12:07:50;;;;;;;5.88;3.60;;;;;;;17.08;47.28;95778.47;10479663;28;20033;-28
2022/12/11 12:13:09;;;;;;;7.43;3.70;;;;;;;17.21;46.65;95777.50;10472326;28;20436;-29
2022/12/11 12:18:44;;;;;;;5.55;4.10;;;;;;;17.32;46.67;95775.72;10496340;28;20040;-27
2022/12/11 12:24:22;;;;;;;6.78;3.67;;;;;;;17.52;43.17;95782.25;10473559;28;20119;-27
2022/12/11 12:29:59;;;;;;;8.30;3.50;;;;;;;17.59;42.41;95771.19;10479036;28;20036;-28
2022/12/11 12:35:15;;;;;;;6.70;3.80;;;;;;;17.56;44.61;95786.41;10484490;28;20036;-27
2022/12/11 12:40:27;;;;;;;5.82;3.33;;;;;;;17.60;46.80;95783.00;10481382;28;20047;-27
2022/12/11 12:45:32;;;;;;;4.28;2.75;;;;;;;17.67;42.98;95781.25;10501955;28;20538;-28
2022/12/11 12:50:41;;;;;;;6.10;3.42;;;;;;;17.77;43.04;95786.19;10484323;28;20059;-27
2022/12/11 12:55:42;;;;;;;5.10;3.40;;;;;;;17.69;42.80;95787.13;10486454;28;20051;-29
2022/12/11 13:00:43;;;;;;;6.13;3.58;;;;;;;17.75;42.99;95789.59;10491757;28;20447;-27
2022/12/11 13:05:53;;;;;;;4.82;3.60;;;;;;;17.77;42.76;95790.41;10487575;28;20035;-29
2022/12/11 13:11:01;;;;;;;6.53;4.20;;;;;;;17.80;42.78;95800.47;10481262;28;20066;-27
2022/12/11 13:16:36;;;;;;;4.85;3.72;;;;;;;17.83;42.37;95801.28;10473161;28;20036;-28
2022/12/11 13:21:39;;;;;;;4.65;3.78;;;;;;;17.84;42.75;95802.94;10482522;28;20041;-27
2022/12/11 13:26:41;;;;;;;5.05;3.67;;;;;;;17.76;43.75;95793.78;10477436;28;20043;-27
2022/12/11 13:31:43;;;;;;;12.23;4.35;;;;;;;17.61;45.30;95788.91;10468470;28;20025;-28
2022/12/11 13:36:53;;;;;;;5.97;4.57;;;;;;;17.74;42.37;95798.03;10468859;28;20032;-30
2022/12/11 13:42:06;;;;;;;9.25;4.20;;;;;;;17.78;45.83;95802.19;10471530;28;20032;-29
2022/12/11 13:47:14;;;;;;;9.32;4.35;;;;;;;17.86;43.89;95805.47;10479089;28;20036;-30
2022/12/11 13:52:18;;;;;;;8.32;5.35;;;;;;;17.91;41.21;95818.94;10471877;28;20094;-30
2022/12/11 13:57:24;;;;;;;7.55;4.45;;;;;;;17.87;44.32;95825.72;10474565;28;20078;-30
2022/12/11 14:02:37;;;;;;;5.88;4.18;;;;;;;17.78;44.29;95824.97;10478430;28;20094;-30
2022/12/11 14:07:42;;;;;;;7.00;4.68;;;;;;;17.75;43.73;95825.03;10464577;28;20032;-30
2022/12/11 14:12:58;;;;;;;4.85;4.28;;;;;;;17.77;44.08;95830.91;10472563;28;20028;-30
2022/12/11 14:17:59;;;;;;;6.95;4.60;;;;;;;17.82;45.68;95834.22;10483811;28;20041;-30
2022/12/11 14:23:21;;;;;;;4.47;3.95;;;;;;;17.73;45.51;95835.16;10471345;28;20525;-31
2022/12/11 14:28:26;;;;;;;6.50;3.78;;;;;;;17.75;45.12;95846.09;10489074;28;20055;-30
2022/12/11 14:33:47;;;;;;;7.30;4.80;;;;;;;17.72;43.80;95847.81;10484107;28;20032;-31
2022/12/11 14:38:56;;;;;;;7.15;5.10;;;;;;;17.71;43.04;95847.00;10477316;28;20128;-30
2022/12/11 14:43:59;;;;;;;6.97;5.57;;;;;;;17.75;43.49;95852.88;10475622;28;20433;-30
2022/12/11 14:49:07;;;;;;;6.53;4.35;;;;;;;17.79;44.23;95851.97;10474181;28;20137;-30
2022/12/11 14:54:17;;;;;;;7.90;4.35;;;;;;;17.88;44.14;95862.00;10471754;28;20048;-30
2022/12/11 14:59:22;;;;;;;8.25;4.50;;;;;;;17.94;44.63;95862.78;10466493;28;20483;-30
2022/12/11 15:04:27;;;;;;;9.70;4.60;;;;;;;17.99;44.17;95858.47;10478944;28;20032;-30
2022/12/11 15:09:36;;;;;;;55.30;8.85;;;;;;;17.89;45.21;95851.84;10473745;28;20048;-32
2022/12/11 15:14:50;;;;;;;16.92;5.15;;;;;;;17.94;45.69;95850.13;10461955;28;20045;-30
2022/12/11 15:20:01;;;;;;;7.30;4.30;;;;;;;17.96;44.63;95845.00;10491906;28;20040;-29
2022/12/11 15:25:02;;;;;;;7.95;4.40;;;;;;;17.96;43.54;95832.34;10478359;28;20411;-30
2022/12/11 15:30:30;;;;;;;10.13;5.15;;;;;;;17.91;44.43;95829.06;10483012;28;20037;-30
2022/12/11 15:35:31;;;;;;;6.82;4.50;;;;;;;17.80;45.11;95830.84;10480379;28;20405;-30
2022/12/11 15:40:31;;;;;;;11.27;5.73;;;;;;;17.78;44.43;95832.56;10483198;28;20037;-30
2022/12/11 15:45:32;;;;;;;13.50;5.65;;;;;;;17.74;43.35;95838.53;10481232;28;20290;-30
2022/12/11 15:50:32;;;;;;;8.73;4.80;;;;;;;17.75;43.48;95832.63;10480419;28;20028;-30
2022/12/11 15:55:33;;;;;;;9.57;5.17;;;;;;;17.70;42.77;95832.69;10481742;28;20035;-30
2022/12/11 16:00:34;;;;;;;10.23;5.25;;;;;;;17.75;42.26;95828.38;10477889;28;20044;-31
2022/12/11 16:05:34;;;;;;;11.82;5.55;;;;;;;17.70;43.22;95837.75;10491081;28;20028;-30
2022/12/11 16:10:35;;;;;;;8.55;6.20;;;;;;;17.61;42.36;95831.94;10487017;28;20040;-30
2022/12/11 16:15:42;;;;;;;6.53;5.43;;;;;;;17.67;43.14;95836.94;10497805;28;20097;-31
2022/12/11 16:20:44;;;;;;;6.95;5.18;;;;;;;17.72;43.80;95843.63;10490194;28;20386;-29
2022/12/11 16:25:45;;;;;;;6.72;5.50;;;;;;;17.71;44.41;95841.09;10471035;28;20067;-30
2022/12/11 16:30:46;;;;;;;6.47;5.22;;;;;;;17.74;44.32;95841.06;10488676;28;20033;-31
2022/12/11 16:35:47;;;;;;;7.82;4.50;;;;;;;17.77;44.22;95841.03;10479639;28;20182;-30
2022/12/11 16:40:47;;;;;;;5.70;4.50;;;;;;;17.74;44.13;95841.06;10486091;28;20088;-30
2022/12/11 16:45:53;;;;;;;6.30;4.10;;;;;;;17.75;44.42;95835.97;10478571;28;20297;-30
2022/12/11 16:50:54;;;;;;;5.78;4.03;;;;;;;17.74;44.03;95824.19;10482588;28;20352;-30
2022/12/11 16:55:54;;;;;;;6.88;4.25;;;;;;;17.74;43.71;95820.81;10471737;28;20072;-30
2022/12/11 17:01:00;;;;;;;6.23;4.80;;;;;;;17.75;43.73;95809.84;10484485;28;20036;-30
2022/12/11 17:06:05;;;;;;;9.40;4.50;;;;;;;17.78;44.77;95808.13;10470569;28;20297;-30
2022/12/11 17:11:07;;;;;;;6.55;4.35;;;;;;;17.79;45.10;95808.94;10472308;28;20520;-30
2022/12/11 17:16:12;;;;;;;5.40;4.35;;;;;;;17.81;44.24;95808.06;10476605;28;20041;-30
2022/12/11 17:21:15;;;;;;;6.63;4.95;;;;;;;17.84;42.91;95800.41;10471310;28;20627;-30
2022/12/11 17:26:17;;;;;;;9.60;5.28;;;;;;;17.79;46.05;95794.59;10475457;28;20086;-30
2022/12/11 17:31:18;;;;;;;8.75;4.95;;;;;;;17.78;46.10;95802.19;10474692;28;20476;-30
2022/12/11 17:36:20;;;;;;;7.07;4.43;;;;;;;17.76;45.61;95803.91;10468103;28;20033;-30
2022/12/11 17:41:21;;;;;;;5.55;4.78;;;;;;;17.74;44.44;95803.09;10467430;28;20043;-30
2022/12/11 17:46:24;;;;;;;6.18;4.25;;;;;;;17.83;44.59;95795.41;10477208;28;20492;-30
2022/12/11 17:51:24;;;;;;;6.63;4.63;;;;;;;17.82;45.05;95808.91;10481726;28;20040;-30
2022/12/11 17:56:25;;;;;;;5.22;4.03;;;;;;;17.81;44.24;95812.28;10467411;28;20041;-30
2022/12/11 18:01:26;;;;;;;9.55;4.88;;;;;;;17.78;45.04;95807.25;10482125;28;20480;-32
2022/12/11 18:06:27;;;;;;;8.15;5.13;;;;;;;17.73;44.37;95796.38;10471836;28;20037;-30
2022/12/11 18:11:27;;;;;;;7.32;4.50;;;;;;;17.86;42.14;95806.31;10468714;28;20037;-30
2022/12/11 18:16:34;;;;;;;9.85;4.07;;;;;;;17.88;42.04;95803.75;10472268;28;20028;-30
2022/12/11 18:21:39;;;;;;;5.00;4.30;;;;;;;17.84;43.49;95802.13;10475499;28;20059;-30
2022/12/11 18:26:41;;;;;;;7.63;4.82;;;;;;;17.80;43.83;95810.59;10469204;28;20128;-30
2022/12/11 18:31:42;;;;;;;8.20;4.95;;;;;;;17.87;42.43;95800.41;10461121;28;20442;-30
2022/12/11 18:36:42;;;;;;;12.40;6.60;;;;;;;17.86;43.66;95805.47;10474435;28;20047;-30
2022/12/11 18:41:43;;;;;;;9.80;6.38;;;;;;;17.78;42.84;95807.25;10464107;28;20640;-30
2022/12/11 18:46:43;;;;;;;11.32;6.57;;;;;;;17.78;42.58;95802.19;10467054;28;20033;-30
2022/12/11 18:51:44;;;;;;;10.90;6.57;;;;;;;17.77;43.61;95808.13;10474623;28;20025;-30
2022/12/11 18:56:44;;;;;;;13.03;6.10;;;;;;;17.75;43.80;95809.84;10475202;28;20041;-30
2022/12/11 19:01:45;;;;;;;8.37;6.07;;;;;;;17.76;43.82;95819.94;10485905;28;20777;-30
2022/12/11 19:06:45;;;;;;;11.53;6.73;;;;;;;17.77;43.75;95821.63;10489316;28;20290;-30
2022/12/11 19:11:46;;;;;;;11.73;7.00;;;;;;;17.78;43.74;95827.50;10482716;28;20786;-29
2022/12/11 19:16:47;;;;;;;15.60;6.30;;;;;;;17.82;43.00;95824.94;10477605;28;20033;-30
2022/12/11 19:21:48;;;;;;;11.80;6.72;;;;;;;17.91;42.83;95818.94;10480130;28;20044;-31
2022/12/11 19:26:49;;;;;;;12.48;7.00;;;;;;;17.91;43.73;95829.06;10476958;28;20025;-30
2022/12/11 19:31:50;;;;;;;10.20;6.35;;;;;;;17.85;44.85;95829.13;10474756;28;20040;-30
2022/12/11 19:36:50;;;;;;;14.50;7.10;;;;;;;17.77;46.13;95833.44;10479604;28;20037;-30
2022/12/11 19:41:51;;;;;;;10.43;6.15;;;;;;;17.75;44.78;95828.38;10475406;28;20092;-30
2022/12/11 19:46:51;;;;;;;11.30;5.90;;;;;;;17.74;44.61;95836.00;10468102;28;20036;-30
2022/12/11 19:51:52;;;;;;;8.73;5.13;;;;;;;17.70;45.02;95829.28;10481393;28;20297;-30
2022/12/11 19:56:52;;;;;;;8.82;5.35;;;;;;;17.67;45.34;95824.28;10481639;28;20043;-29
2022/12/11 20:01:53;;;;;;;8.48;4.45;;;;;;;17.65;44.78;95826.81;10491444;28;20032;-30
2022/12/11 20:06:53;;;;;;;6.55;4.47;;;;;;;17.63;44.59;95830.22;10486855;28;20032;-30
2022/12/11 20:11:53;;;;;;;6.97;4.00;;;;;;;17.61;44.11;95831.94;10478816;28;20270;-30
2022/12/11 20:16:55;;;;;;;5.63;3.97;;;;;;;17.61;42.37;95831.94;10492408;28;20299;-30
2022/12/11 20:21:55;;;;;;;9.10;4.78;;;;;;;17.60;43.49;95831.09;10470866;28;20291;-30
2022/12/11 20:26:56;;;;;;;5.68;3.47;;;;;;;17.62;44.01;95831.06;10466470;28;20033;-29
2022/12/11 20:31:58;;;;;;;4.68;3.50;;;;;;;17.64;44.50;95837.78;10481413;28;20036;-30
2022/12/11 20:36:59;;;;;;;7.68;4.10;;;;;;;17.64;42.37;95834.41;10472539;28;20075;-30
2022/12/11 20:42:03;;;;;;;9.30;4.07;;;;;;;17.58;43.74;95834.50;10457513;28;20071;-30
2022/12/11 20:47:05;;;;;;;4.88;3.72;;;;;;;17.54;44.58;95832.84;10465625;28;20036;-30
2022/12/11 20:52:06;;;;;;;6.25;3.92;;;;;;;17.56;42.36;95828.63;10469401;28;20085;-30
2022/12/11 20:57:06;;;;;;;6.10;3.45;;;;;;;17.58;41.56;95830.25;10472537;28;20480;-30
2022/12/11 21:02:08;;;;;;;4.67;3.60;;;;;;;17.59;41.42;95826.06;10477160;28;20036;-29
2022/12/11 21:07:09;;;;;;;4.60;3.58;;;;;;;17.58;41.71;95821.84;10477114;28;20290;-30
2022/12/11 21:12:09;;;;;;;5.75;3.40;;;;;;;17.61;40.97;95831.94;10467054;28;20102;-29
2022/12/11 21:17:10;;;;;;;6.70;4.00;;;;;;;17.61;40.64;95825.19;10467474;28;20120;-30
2022/12/11 21:22:12;;;;;;;9.65;4.97;;;;;;;17.62;40.90;95831.06;10468851;28;20104;-29
2022/12/11 21:27:12;;;;;;;14.43;5.93;;;;;;;17.52;40.80;95809.25;10468367;28;20032;-29
2022/12/11 21:32:13;;;;;;;12.30;6.32;;;;;;;17.63;42.14;95817.56;10478454;28;20292;-30
2022/12/11 21:37:13;;;;;;;14.57;7.60;;;;;;;17.65;42.56;95816.69;10471471;28;20036;-31
2022/12/11 21:42:13;;;;;;;14.13;7.23;;;;;;;17.65;41.55;95819.22;10473421;28;20032;-30
2022/12/11 21:47:14;;;;;;;13.27;7.35;;;;;;;17.49;42.64;95799.16;10477098;28;20804;-29
2022/12/11 21:52:15;;;;;;;13.75;7.20;;;;;;;17.64;41.43;95824.28;10463461;28;20047;-31
2022/12/11 21:57:15;;;;;;;11.97;6.80;;;;;;;17.59;40.57;95810.88;10479246;28;20044;-30
2022/12/11 22:02:15;;;;;;;9.10;5.83;;;;;;;17.65;42.51;95820.94;10470830;28;20054;-30
2022/12/11 22:07:16;;;;;;;11.90;7.22;;;;;;;17.62;43.73;95821.78;10477295;28;20809;-30
2022/12/11 22:12:23;;;;;;;14.32;5.18;;;;;;;17.58;42.27;95819.31;10483698;28;20039;-30
2022/12/11 22:17:24;;;;;;;9.40;4.63;;;;;;;17.57;43.33;95826.06;10486190;28;20119;-30
2022/12/11 22:22:24;;;;;;;9.17;4.63;;;;;;;17.53;44.29;95821.03;10480791;28;20024;-30
2022/12/11 22:27:25;;;;;;;7.00;4.13;;;;;;;17.52;43.49;95824.44;10482948;28;20274;-32
2022/12/11 22:32:27;;;;;;;6.45;3.60;;;;;;;17.52;42.46;95829.50;10482428;28;20059;-31
2022/12/11 22:37:28;;;;;;;7.57;3.83;;;;;;;17.51;42.76;95816.00;10481494;28;20039;-30
2022/12/11 22:42:28;;;;;;;7.93;3.58;;;;;;;17.46;44.56;95809.31;10468341;28;21024;-30
2022/12/11 22:47:29;;;;;;;5.63;3.50;;;;;;;17.57;41.45;95817.66;10485090;28;20035;-30
2022/12/11 22:52:29;;;;;;;5.15;3.30;;;;;;;17.59;41.37;95818.47;10482937;28;20136;-31
2022/12/11 22:57:30;;;;;;;5.70;3.25;;;;;;;17.38;41.79;95796.75;10479645;28;20024;-30
2022/12/11 23:02:30;;;;;;;5.93;2.60;;;;;;;17.53;41.25;95818.50;10490250;28;20040;-30
2022/12/11 23:07:31;;;;;;;3.80;2.73;;;;;;;17.55;42.74;95824.38;10479051;28;20278;-30
2022/12/11 23:12:32;;;;;;;6.13;2.92;;;;;;;17.54;41.48;95817.66;10473381;28;20298;-31
2022/12/11 23:17:32;;;;;;;4.03;2.57;;;;;;;17.53;41.80;95821.03;10482167;28;20045;-30
2022/12/11 23:22:32;;;;;;;4.07;2.73;;;;;;;17.50;42.02;95816.03;10473340;28;20310;-29
2022/12/11 23:27:33;;;;;;;6.45;2.63;;;;;;;17.49;40.72;95820.22;10484992;28;20290;-30
2022/12/11 23:32:33;;;;;;;5.50;2.53;;;;;;;17.50;41.02;95826.16;10480605;28;20043;-30
2022/12/11 23:37:33;;;;;;;3.20;2.30;;;;;;;17.48;41.76;95822.81;10486128;28;20298;-29
2022/12/11 23:42:34;;;;;;;3.60;2.30;;;;;;;17.48;41.51;95831.22;10471637;28;20111;-30